2G9

Somerset County Airport

Somerset, Pennsylvania, USA
METAR K2G9 171435Z AUTO 21014G21KT 10SM BKN025 BKN031 OVC095 23/19 A3013 RMK AO2
Observed Flight Rules
Aug-17 @ 14:35 UTC (20 minutes ago) Marginal Visual Flight Rules
Wind Visibility Clouds
210° at 14 knots
 Gusting to 21 knots
10 miles
  • Broken at 2,500' AGL
  • Broken at 3,100' AGL
  • Overcast at 9,500' AGL
Temperatures Readings
Current 23°C / 73°F
Dewpoint 19°C / 66°F
Humidity 78%
Altimeter 30.13" Hg
Pressure 1020 hPa
Elevation 693
METAR K2G9 171435Z AUTO 21014G21KT 10SM BKN025 BKN031 OVC095 23/19 A3013 RMK AO2
Observed Flight Rules
Aug-17 @ 14:35 UTC
(20 minutes ago)
MVFR
Wind Visibility
210° at 14 knots
 Gusting to 21 knots
10 miles
Clouds
  • Broken at 2,500' AGL
  • Broken at 3,100' AGL
  • Overcast at 9,500' AGL
Temperature Dewpoint
23°C / 73°F 19°C / 66°F
Humidity Altimeter Pressure
78% 30.13" Hg 1020 hPa